4XCDN LLHZ-LLHZ

Flight info

Callsign 4XCDN
Flight time 0h 10m
Altitude 800
Route ROUNDERS
Aircraft C152/L-V/N

Departure

Time 2026-04-26 15:06
Airport Herzliya Airport (LLHZ)

Arrival

Time 2026-04-26 15:17
Airport Herzliya Airport (LLHZ)
Time Latitude Longitude Altitude Speed Heading
2026-04-26 14:54 32.18043 34.83232 88 ft 0 kts 20°
2026-04-26 15:01 32.18051 34.83237 108 ft 3 kts 50°
2026-04-26 15:01 32.18050 34.83269 108 ft 4 kts 109°
2026-04-26 15:01 32.18037 34.83314 109 ft 6 kts 110°
2026-04-26 15:02 32.18021 34.83363 110 ft 8 kts 107°
2026-04-26 15:02 32.17995 34.83452 112 ft 12 kts 109°
2026-04-26 15:02 32.17975 34.83524 114 ft 9 kts 109°
2026-04-26 15:02 32.17956 34.83588 116 ft 9 kts 109°
2026-04-26 15:03 32.17933 34.83665 120 ft 13 kts 110°
2026-04-26 15:03 32.17910 34.83743 124 ft 8 kts 109°
2026-04-26 15:03 32.17893 34.83802 125 ft 6 kts 109°
2026-04-26 15:03 32.17883 34.83834 125 ft 2 kts 110°
2026-04-26 15:04 32.17880 34.83846 127 ft 0 kts 104°
2026-04-26 15:05 32.17885 34.83859 128 ft 8 kts 31°
2026-04-26 15:05 32.17903 34.83861 130 ft 6 kts 342°
2026-04-26 15:05 32.18085 34.83307 252 ft 61 kts 283°
2026-04-26 15:05 32.18287 34.82817 394 ft 75 kts 314°
2026-04-26 15:06 32.18836 34.82861 541 ft 90 kts 14°
2026-04-26 15:06 32.19338 34.83290 736 ft 95 kts 60°
2026-04-26 15:06 32.19269 34.84047 837 ft 105 kts 117°
2026-04-26 15:06 32.18909 34.84870 707 ft 113 kts 128°
2026-04-26 15:07 32.17969 34.85322 511 ft 77 kts 210°
2026-04-26 15:07 32.17613 34.84970 422 ft 59 kts 245°
2026-04-26 15:07 32.17683 34.84531 360 ft 61 kts 300°
2026-04-26 15:08 32.17832 34.84112 241 ft 54 kts 284°
2026-04-26 15:08 32.17947 34.83716 124 ft 51 kts 284°
2026-04-26 15:08 32.18109 34.83254 252 ft 65 kts 286°
2026-04-26 15:08 32.18339 34.82772 480 ft 70 kts 320°
2026-04-26 15:09 32.18900 34.82845 577 ft 91 kts
2026-04-26 15:09 32.19285 34.83069 684 ft 95 kts 39°
2026-04-26 15:09 32.19415 34.83822 829 ft 103 kts 109°
2026-04-26 15:09 32.19105 34.84644 711 ft 112 kts 122°
2026-04-26 15:10 32.18651 34.85344 657 ft 103 kts 154°
2026-04-26 15:10 32.18222 34.85410 651 ft 95 kts 198°
2026-04-26 15:10 32.17667 34.84898 446 ft 65 kts 253°
2026-04-26 15:10 32.17750 34.84399 292 ft 62 kts 290°
2026-04-26 15:11 32.17886 34.83936 156 ft 54 kts 282°
2026-04-26 15:11 32.18009 34.83523 124 ft 67 kts 283°
2026-04-26 15:11 32.18180 34.82976 294 ft 72 kts 285°
2026-04-26 15:11 32.18587 34.82737 516 ft 83 kts
2026-04-26 15:12 32.19145 34.83013 640 ft 92 kts 30°
2026-04-26 15:12 32.19336 34.83711 732 ft 100 kts 110°
2026-04-26 15:12 32.19061 34.84503 683 ft 105 kts 119°
2026-04-26 15:12 32.18710 34.85219 622 ft 101 kts 130°
2026-04-26 15:13 32.18261 34.85584 589 ft 72 kts 176°
2026-04-26 15:13 32.18032 34.86155 634 ft 89 kts 79°
2026-04-26 15:13 32.18485 34.86580 666 ft 86 kts 345°
2026-04-26 15:13 32.18590 34.86110 592 ft 81 kts 226°
2026-04-26 15:14 32.18079 34.86029 622 ft 79 kts 146°
2026-04-26 15:14 32.18124 34.86704 502 ft 100 kts 44°
2026-04-26 15:14 32.18647 34.86869 580 ft 77 kts 308°
2026-04-26 15:14 32.18510 34.86342 566 ft 87 kts 205°
2026-04-26 15:15 32.18016 34.86737 652 ft 102 kts 96°
2026-04-26 15:15 32.18467 34.87205 574 ft 101 kts 330°
2026-04-26 15:15 32.18756 34.86591 553 ft 83 kts 268°
2026-04-26 15:15 32.18692 34.85912 433 ft 84 kts 262°
2026-04-26 15:16 32.18638 34.85314 607 ft 62 kts 241°
2026-04-26 15:16 32.18177 34.85009 560 ft 90 kts 205°
2026-04-26 15:16 32.17774 34.84627 408 ft 63 kts 247°
2026-04-26 15:16 32.17769 34.84181 251 ft 60 kts 301°
2026-04-26 15:17 32.17924 34.83822 129 ft 38 kts 281°
2026-04-26 15:17 32.18002 34.83555 114 ft 67 kts 289°
2026-04-26 15:17 32.18216 34.82858 350 ft 67 kts 285°
2026-04-26 15:17 32.18663 34.82721 451 ft 90 kts 12°
2026-04-26 15:18 32.19220 34.83075 622 ft 95 kts 39°
2026-04-26 15:18 32.19357 34.83774 782 ft 91 kts 114°
2026-04-26 15:18 32.19081 34.84469 754 ft 94 kts 124°
2026-04-26 15:18 32.18696 34.85106 655 ft 97 kts 139°
2026-04-26 15:19 32.18148 34.85305 527 ft 82 kts 192°
2026-04-26 15:19 32.17721 34.85033 465 ft 61 kts 244°
2026-04-26 15:19 32.17699 34.84561 331 ft 58 kts 290°
2026-04-26 15:19 32.17832 34.84141 217 ft 48 kts 278°
2026-04-26 15:20 32.17939 34.83779 126 ft 39 kts 283°
2026-04-26 15:20 32.17977 34.83638 118 ft 15 kts 284°
2026-04-26 15:20 32.17960 34.83578 115 ft 6 kts 278°
2026-04-26 15:20 32.17979 34.83508 113 ft 14 kts 288°
2026-04-26 15:21 32.18012 34.83399 111 ft 12 kts 289°
2026-04-26 15:21 32.18041 34.83302 108 ft 14 kts 288°
2026-04-26 15:21 32.18075 34.83184 106 ft 15 kts 290°
2026-04-26 15:21 32.18109 34.83070 104 ft 12 kts 289°
2026-04-26 15:22 32.18146 34.82990 102 ft 11 kts 294°
2026-04-26 15:22 32.18172 34.82906 101 ft 10 kts 289°
2026-04-26 15:22 32.18192 34.82836 101 ft 8 kts 288°
2026-04-26 15:22 32.18213 34.82819 101 ft 4 kts 19°
2026-04-26 15:23 32.18230 34.82813 101 ft 5 kts 258°
2026-04-26 15:23 32.18218 34.82804 101 ft 0 kts 112°